createdAt,value
2019-03-25T00:01:36.917Z,99407.52
2019-03-25T00:04:09.421Z,99415.39
2019-03-25T00:06:41.241Z,99416.77
2019-03-25T00:09:49.501Z,99406.96
2019-03-25T00:12:22.303Z,99416.98
2019-03-25T00:14:54.777Z,99409.88
2019-03-25T00:17:27.282Z,99409.88
2019-03-25T00:19:59.758Z,99403.66
2019-03-25T00:22:32.312Z,99403.66
2019-03-25T00:25:05.467Z,99408.94
2019-03-25T00:27:38.574Z,99408.94
2019-03-25T00:30:11.309Z,99407.12
2019-03-25T00:32:45.298Z,99408.92
2019-03-25T00:35:17.720Z,99392.41
2019-03-25T00:37:50.158Z,99392.41
2019-03-25T00:40:22.640Z,99404.59
2019-03-25T00:42:55.302Z,99396.50
2019-03-25T00:45:28.557Z,99400.08
2019-03-25T00:48:01.174Z,99398.25
2019-03-25T00:50:33.550Z,99395.61
2019-03-25T00:53:05.965Z,99396.75
2019-03-25T00:55:38.470Z,99391.58
2019-03-25T00:58:10.307Z,99394.11
2019-03-25T01:00:43.277Z,99391.80
2019-03-25T01:03:15.719Z,99391.80
2019-03-25T01:05:48.334Z,99399.88
2019-03-25T01:08:20.788Z,99390.84
2019-03-25T01:10:53.353Z,99390.84
2019-03-25T01:13:27.400Z,99400.85
2019-03-25T01:15:59.045Z,99400.85
2019-03-25T01:18:31.478Z,99402.50
2019-03-25T01:21:03.234Z,99392.63
2019-03-25T01:23:35.637Z,99392.22
2019-03-25T01:26:08.022Z,99395.98
2019-03-25T01:28:40.325Z,99398.37
2019-03-25T01:31:12.887Z,99375.81
2019-03-25T01:33:45.311Z,99375.81
2019-03-25T01:36:17.768Z,99385.55
2019-03-25T01:38:50.285Z,99385.55
2019-03-25T01:41:23.026Z,99392.77
2019-03-25T01:43:55.528Z,99392.77
2019-03-25T01:46:27.781Z,99394.55
2019-03-25T01:49:00.293Z,99399.20
2019-03-25T01:51:32.713Z,99389.97
2019-03-25T01:54:05.314Z,99389.97
2019-03-25T01:56:37.477Z,99387.45
2019-03-25T01:59:09.395Z,99388.77
2019-03-25T02:01:41.710Z,99360.70
2019-03-25T02:04:14.170Z,99360.70
2019-03-25T02:06:46.470Z,99393.92
2019-03-25T02:09:18.232Z,99395.88
2019-03-25T02:11:50.579Z,99380.48
2019-03-25T02:14:23.006Z,99381.56
2019-03-25T02:16:55.378Z,99396.87
2019-03-25T02:19:28.687Z,99375.67
2019-03-25T02:22:01.308Z,99375.67
2019-03-25T02:24:33.766Z,99392.58
2019-03-25T02:27:06.302Z,99392.58
2019-03-25T02:29:38.775Z,99392.33
2019-03-25T02:32:11.307Z,99392.33
2019-03-25T02:34:44.295Z,99389.06
2019-03-25T02:37:16.564Z,99389.80
2019-03-25T02:39:48.847Z,99389.80
2019-03-25T02:42:21.291Z,99381.02
2019-03-25T02:44:53.621Z,99356.73
2019-03-25T02:47:25.883Z,99356.73
2019-03-25T02:49:58.293Z,99378.30
2019-03-25T02:52:30.630Z,99367.50
2019-03-25T02:55:03.027Z,99367.50
2019-03-25T02:57:35.395Z,99370.76
2019-03-25T03:00:10.798Z,99382.58
2019-03-25T03:02:43.300Z,99381.30
2019-03-25T03:05:15.251Z,99384.80
2019-03-25T03:07:48.581Z,99377.06
2019-03-25T03:10:21.291Z,99377.06
2019-03-25T03:12:53.727Z,99361.86
2019-03-25T03:15:26.291Z,99361.86
2019-03-25T03:17:58.777Z,99371.97
2019-03-25T03:20:30.863Z,99386.92
2019-03-25T03:23:03.297Z,99379.77
2019-03-25T03:25:35.791Z,99386.98
2019-03-25T03:28:08.292Z,99386.98
2019-03-25T03:30:40.576Z,99375.98
2019-03-25T03:33:12.874Z,99375.98
2019-03-25T03:35:46.696Z,99375.84
2019-03-25T03:38:19.291Z,99386.42
2019-03-25T03:40:52.779Z,99373.21
2019-03-25T03:43:25.317Z,99376.41
2019-03-25T03:45:57.745Z,99371.20
2019-03-25T03:48:30.281Z,99371.20
2019-03-25T03:51:05.776Z,99381.47
2019-03-25T03:53:38.392Z,99381.47
2019-03-25T03:56:14.222Z,99382.50
2019-03-25T03:58:51.347Z,99381.55
2019-03-25T04:01:21.332Z,99379.89
2019-03-25T04:03:53.721Z,99358.70
2019-03-25T04:06:27.319Z,99358.70
2019-03-25T04:08:59.830Z,99378.46
2019-03-25T04:11:32.293Z,99378.46
2019-03-25T04:14:04.714Z,99367.81
2019-03-25T04:16:37.288Z,99367.81
2019-03-25T04:19:09.750Z,99345.16
2019-03-25T04:21:42.294Z,99345.16
2019-03-25T04:24:14.563Z,99340.16
2019-03-25T04:26:47.020Z,99340.16
2019-03-25T04:29:19.329Z,99373.95
2019-03-25T04:31:51.827Z,99372.19
2019-03-25T04:34:24.286Z,99372.19
2019-03-25T04:36:56.618Z,99372.83
2019-03-25T04:39:29.293Z,99372.83
2019-03-25T04:42:01.759Z,99379.86
2019-03-25T04:44:34.286Z,99379.86
2019-03-25T04:47:06.761Z,99355.73
2019-03-25T04:49:39.288Z,99355.73
2019-03-25T04:52:11.569Z,99366.63
2019-03-25T04:54:43.890Z,99366.63
2019-03-25T04:57:17.784Z,99383.06
2019-03-25T04:59:50.386Z,99389.45
2019-03-25T05:02:22.752Z,99379.91
2019-03-25T05:04:55.282Z,99379.91
2019-03-25T05:07:27.636Z,99365.42
2019-03-25T05:10:00.410Z,99365.42
2019-03-25T05:12:32.246Z,99377.25
2019-03-25T05:15:05.403Z,99382.02
2019-03-25T05:17:37.237Z,99377.21
2019-03-25T05:20:10.289Z,99373.27
2019-03-25T05:22:42.712Z,99380.52
2019-03-25T05:25:15.381Z,99380.52
2019-03-25T05:27:47.665Z,99357.62
2019-03-25T05:30:22.846Z,99357.62
2019-03-25T05:32:54.289Z,99387.15
2019-03-25T05:35:26.274Z,99390.58
2019-03-25T05:37:58.247Z,99384.37
2019-03-25T05:40:30.531Z,99384.52
2019-03-25T05:43:02.810Z,99385.52
2019-03-25T05:45:35.349Z,99379.46
2019-03-25T05:48:07.894Z,99381.77
2019-03-25T05:50:40.293Z,99381.77
2019-03-25T05:53:13.309Z,99362.58
2019-03-25T05:55:45.570Z,99384.73
2019-03-25T05:58:19.445Z,99384.73
2019-03-25T06:00:51.771Z,99389.47
2019-03-25T06:03:24.286Z,99392.11
2019-03-25T06:05:56.651Z,99395.22
2019-03-25T06:08:29.308Z,99395.22
2019-03-25T06:11:01.750Z,99396.35
2019-03-25T06:13:34.288Z,99396.35
2019-03-25T06:16:06.977Z,99384.54
2019-03-25T06:18:40.506Z,99395.66
2019-03-25T06:21:13.287Z,99387.97
2019-03-25T06:23:45.571Z,99388.11
2019-03-25T06:26:18.186Z,99388.11
2019-03-25T06:28:50.700Z,99387.90
2019-03-25T06:31:23.285Z,99387.23
2019-03-25T06:33:55.677Z,99381.80
2019-03-25T06:36:28.282Z,99381.80
2019-03-25T06:39:00.120Z,99391.63
2019-03-25T06:41:34.293Z,99385.80
2019-03-25T06:44:06.742Z,99390.45
2019-03-25T06:46:39.282Z,99390.45
2019-03-25T06:49:11.752Z,99373.84
2019-03-25T06:51:45.270Z,99373.84
2019-03-25T06:54:17.229Z,99393.48
2019-03-25T06:56:49.508Z,99396.83
2019-03-25T06:59:21.789Z,99392.91
2019-03-25T07:01:54.293Z,99407.30
2019-03-25T07:04:26.647Z,99393.94
2019-03-25T07:06:59.289Z,99393.94
2019-03-25T07:09:31.648Z,99398.98
2019-03-25T07:12:04.321Z,99398.98
2019-03-25T07:14:37.349Z,99405.23
2019-03-25T07:17:09.784Z,99398.64
2019-03-25T07:19:42.291Z,99397.81
2019-03-25T07:22:14.749Z,99376.20
2019-03-25T07:24:47.319Z,99376.20
2019-03-25T07:27:24.413Z,99406.10
2019-03-25T07:29:56.100Z,99406.10
2019-03-25T07:32:28.357Z,99399.13
2019-03-25T07:35:00.168Z,99402.97
2019-03-25T07:37:32.813Z,99394.92
2019-03-25T07:40:09.006Z,99394.92
2019-03-25T07:42:42.897Z,99392.48
2019-03-25T07:45:16.309Z,99389.44
2019-03-25T07:47:48.739Z,99386.63
2019-03-25T07:50:24.293Z,99374.64
2019-03-25T07:52:56.717Z,99373.61
2019-03-25T07:55:30.316Z,99373.61
2019-03-25T07:58:02.782Z,99361.61
2019-03-25T08:00:35.340Z,99361.61
2019-03-25T08:03:09.320Z,99391.17
2019-03-25T08:05:41.727Z,99377.77
2019-03-25T08:08:14.333Z,99377.77
2019-03-25T08:10:48.429Z,99394.14
2019-03-25T08:13:20.422Z,99384.30
2019-03-25T08:15:52.093Z,99367.42
2019-03-25T08:18:24.867Z,99371.05
2019-03-25T08:20:57.317Z,99376.67
2019-03-25T08:23:29.847Z,99394.13
2019-03-25T08:26:02.299Z,99394.13
2019-03-25T08:28:34.815Z,99365.25
2019-03-25T08:31:07.299Z,99365.25
2019-03-25T08:33:39.975Z,99355.33
2019-03-25T08:36:12.403Z,99355.33
2019-03-25T08:38:52.350Z,99370.70
2019-03-25T08:41:24.839Z,99376.59
2019-03-25T08:44:00.148Z,99376.59
2019-03-25T08:46:32.730Z,99372.69
2019-03-25T08:49:05.324Z,99378.89
2019-03-25T08:51:39.404Z,99374.97
2019-03-25T08:54:11.258Z,99379.97
2019-03-25T08:56:43.327Z,99372.09
2019-03-25T08:59:15.380Z,99374.56
2019-03-25T09:01:47.817Z,99357.26
2019-03-25T09:04:20.306Z,99357.26
2019-03-25T09:06:52.653Z,99377.72
2019-03-25T09:09:25.283Z,99377.72
2019-03-25T09:11:57.709Z,99366.03
2019-03-25T09:14:30.289Z,99366.03
2019-03-25T09:17:02.766Z,99364.11
2019-03-25T09:19:35.312Z,99364.11
2019-03-25T09:22:08.292Z,99374.69
2019-03-25T09:24:41.069Z,99359.98
2019-03-25T09:27:13.599Z,99359.98
2019-03-25T09:29:48.319Z,99374.39
2019-03-25T09:32:20.332Z,99390.90
2019-03-25T09:34:52.597Z,99366.52
2019-03-25T09:37:25.035Z,99368.02
2019-03-25T09:39:57.513Z,99364.04
2019-03-25T09:42:30.012Z,99351.81
2019-03-25T09:45:04.293Z,99364.19
2019-03-25T09:47:37.952Z,99370.58
2019-03-25T09:50:13.750Z,99370.58
2019-03-25T09:52:46.348Z,99353.42
2019-03-25T09:55:20.329Z,99322.34
2019-03-25T09:57:52.711Z,99339.05
2019-03-25T10:00:34.691Z,99344.72
2019-03-25T10:03:07.436Z,99344.72
2019-03-25T10:05:39.290Z,99346.92
2019-03-25T10:08:11.547Z,99352.31
2019-03-25T10:10:44.315Z,99352.27
2019-03-25T10:13:16.812Z,99368.56
2019-03-25T10:15:49.464Z,99368.56
2019-03-25T10:18:23.417Z,99374.73
2019-03-25T10:21:09.265Z,99336.58
2019-03-25T10:23:41.082Z,99336.58
2019-03-25T10:26:13.606Z,99362.90
2019-03-25T10:28:48.862Z,99392.16
2019-03-25T10:31:20.350Z,99383.39
2019-03-25T10:33:52.256Z,99377.97
2019-03-25T10:36:24.480Z,99381.51
2019-03-25T10:38:56.246Z,99387.34
2019-03-25T10:41:28.831Z,99379.52
2019-03-25T10:44:01.356Z,99376.48
2019-03-25T10:46:34.858Z,99383.78
2019-03-25T10:49:07.727Z,99379.52
2019-03-25T10:51:40.429Z,99375.82
2019-03-25T10:54:19.064Z,99375.34
2019-03-25T10:56:52.289Z,99384.81
2019-03-25T10:59:25.159Z,99360.05
2019-03-25T11:01:57.936Z,99360.05
2019-03-25T11:04:30.558Z,99364.73
2019-03-25T11:07:03.398Z,99367.56
2019-03-25T11:09:36.046Z,99372.36
2019-03-25T11:13:55.428Z,99355.41
2019-03-25T11:16:28.103Z,99360.02
2019-03-25T11:19:00.734Z,99335.83
2019-03-25T11:21:33.343Z,99335.83
2019-03-25T11:24:05.837Z,99356.73
2019-03-25T11:26:38.601Z,99347.20
2019-03-25T11:29:11.301Z,99347.72
2019-03-25T11:31:43.574Z,99339.48
2019-03-25T11:34:16.296Z,99339.48
2019-03-25T11:36:48.539Z,99335.88
2019-03-25T11:39:22.300Z,99330.51
2019-03-25T11:41:54.293Z,99348.45
2019-03-25T11:44:26.586Z,99393.47
2019-03-25T11:46:59.292Z,99401.03
2019-03-25T11:49:31.593Z,99368.58
2019-03-25T11:52:09.306Z,99368.58
2019-03-25T11:54:41.632Z,99342.53
2019-03-25T11:57:14.234Z,99342.53
2019-03-25T12:01:33.887Z,99358.58
2019-03-25T12:04:06.485Z,99369.84
2019-03-25T12:06:38.234Z,99374.16
2019-03-25T12:09:12.050Z,99357.26
2019-03-25T12:11:44.427Z,99349.62
2019-03-25T12:14:16.789Z,99348.07
2019-03-25T12:16:49.292Z,99343.78
2019-03-25T12:19:21.640Z,99301.16
2019-03-25T12:21:54.298Z,99301.16
2019-03-25T12:24:26.596Z,99313.22
2019-03-25T12:26:59.287Z,99313.22
2019-03-25T12:29:36.752Z,99320.22
2019-03-25T12:33:27.237Z,99315.37
2019-03-25T12:35:59.648Z,99328.28
2019-03-25T12:38:32.283Z,99337.34
2019-03-25T12:41:04.611Z,99337.59
2019-03-25T12:43:37.289Z,99337.59
2019-03-25T12:46:09.810Z,99347.71
2019-03-25T12:48:42.544Z,99347.71
2019-03-25T12:53:23.047Z,99341.67
2019-03-25T12:55:55.493Z,99345.09
2019-03-25T12:58:27.410Z,99337.77
2019-03-25T13:00:59.837Z,99337.77
2019-03-25T13:03:32.538Z,99325.89
2019-03-25T13:06:04.876Z,99330.23
2019-03-25T13:08:37.594Z,99360.80
2019-03-25T13:11:10.028Z,99387.73
2019-03-25T13:13:42.758Z,99384.48
2019-03-25T13:16:15.326Z,99400.02
2019-03-25T13:18:47.815Z,99374.02
2019-03-25T13:21:21.619Z,99374.02
2019-03-25T13:23:54.321Z,99369.43
2019-03-25T13:26:26.660Z,99351.16
2019-03-25T13:29:03.307Z,99351.16
2019-03-25T13:31:35.779Z,99334.09
2019-03-25T13:34:08.585Z,99334.09
2019-03-25T13:36:41.278Z,99348.97
2019-03-25T13:39:14.964Z,99348.70
2019-03-25T13:41:47.384Z,99345.04
2019-03-25T13:44:19.264Z,99340.30
2019-03-25T13:46:53.286Z,99337.03
2019-03-25T13:49:25.652Z,99329.08
2019-03-25T13:51:58.289Z,99329.08
2019-03-25T13:54:31.298Z,99313.23
2019-03-25T13:57:05.300Z,99313.23
2019-03-25T13:59:37.692Z,99318.75
2019-03-25T14:02:10.318Z,99331.05
2019-03-25T14:04:44.007Z,99312.45
2019-03-25T14:07:16.530Z,99312.45
2019-03-25T14:09:48.798Z,99313.29
2019-03-25T14:12:21.310Z,99303.85
2019-03-25T14:14:57.217Z,99309.73
2019-03-25T14:17:28.016Z,99309.73
2019-03-25T14:20:00.594Z,99312.61
2019-03-25T14:22:33.304Z,99323.72
2019-03-25T14:25:06.486Z,99394.27
2019-03-25T14:27:38.238Z,99394.27
2019-03-25T14:30:14.818Z,99426.69
2019-03-25T14:32:46.286Z,99453.45
2019-03-25T14:35:18.561Z,99461.47
2019-03-25T14:37:51.029Z,99461.47
2019-03-25T14:40:25.478Z,99460.55
2019-03-25T14:42:57.622Z,99451.83
2019-03-25T14:45:30.035Z,99445.49
2019-03-25T14:48:02.462Z,99440.77
2019-03-25T14:50:34.246Z,99428.33
2019-03-25T14:53:08.277Z,99423.82
2019-03-25T14:55:40.566Z,99419.66
2019-03-25T14:58:12.930Z,99419.66
2019-03-25T15:00:45.424Z,99417.94
2019-03-25T15:03:17.219Z,99423.23
2019-03-25T15:05:49.707Z,99422.11
2019-03-25T15:08:22.298Z,99415.60
2019-03-25T15:10:55.059Z,99413.86
2019-03-25T15:13:28.550Z,99420.14
2019-03-25T15:16:01.141Z,99417.36
2019-03-25T15:18:33.622Z,99416.13
2019-03-25T15:21:06.832Z,99422.80
2019-03-25T15:23:39.354Z,99418.77
2019-03-25T15:26:13.404Z,99408.88
2019-03-25T15:28:45.258Z,99408.88
2019-03-25T15:31:17.567Z,99412.48
2019-03-25T15:33:50.362Z,99412.52
2019-03-25T15:36:23.294Z,99413.82
2019-03-25T15:38:58.412Z,99417.78
2019-03-25T15:41:30.362Z,99409.62
2019-03-25T15:44:01.920Z,99413.64
2019-03-25T15:46:34.405Z,99413.64
2019-03-25T15:49:06.239Z,99392.40
2019-03-25T15:51:38.759Z,99392.40
2019-03-25T15:54:11.333Z,99405.50
2019-03-25T15:56:43.852Z,99410.94
2019-03-25T15:59:16.372Z,99410.94
2019-03-25T16:01:48.736Z,99405.06
2019-03-25T16:04:21.305Z,99405.06
2019-03-25T16:06:53.257Z,99407.29
2019-03-25T16:09:30.044Z,99405.16
2019-03-25T16:12:04.864Z,99408.80
2019-03-25T16:14:43.615Z,99396.23
2019-03-25T16:17:16.551Z,99393.38
2019-03-25T16:19:49.298Z,99390.51
2019-03-25T16:22:21.890Z,99401.02
2019-03-25T16:24:55.652Z,99401.02
2019-03-25T17:32:17.337Z,99518.95
2019-03-25T17:34:50.296Z,99528.80
2019-03-25T17:37:22.841Z,99523.58
2019-03-25T17:39:55.308Z,99523.58
2019-03-25T17:42:27.745Z,99526.11
2019-03-25T17:45:00.494Z,99526.11
2019-03-25T17:47:33.320Z,99535.16
2019-03-25T17:50:07.769Z,99537.94
2019-03-25T17:52:40.665Z,99542.20
2019-03-25T17:55:14.303Z,99557.45
2019-03-25T17:57:46.483Z,99561.89
2019-03-25T18:00:22.731Z,99560.39
2019-03-25T18:02:55.291Z,99555.30
2019-03-25T18:05:27.690Z,99555.18
2019-03-25T18:08:00.427Z,99555.18
2019-03-25T18:10:32.253Z,99551.87
2019-03-25T18:13:04.457Z,99552.53
2019-03-25T18:15:36.337Z,99556.30
2019-03-25T18:18:08.785Z,99567.13
2019-03-25T18:20:41.310Z,99567.13
2019-03-25T18:23:13.300Z,99571.09
2019-03-25T18:25:46.145Z,99571.87
2019-03-25T18:28:20.446Z,99571.87
2019-03-25T18:30:52.253Z,99578.91
2019-03-25T18:33:25.377Z,99582.84
2019-03-25T18:35:57.752Z,99593.81
2019-03-25T18:38:30.310Z,99593.81
2019-03-25T18:41:02.429Z,99589.27
2019-03-25T18:43:34.357Z,99584.44
2019-03-25T18:46:06.739Z,99601.55
2019-03-25T18:48:39.312Z,99601.55
2019-03-25T18:51:11.229Z,99596.96
2019-03-25T18:53:43.618Z,99595.96
2019-03-25T18:56:16.294Z,99603.14
2019-03-25T18:58:49.078Z,99608.62
2019-03-25T19:01:22.023Z,99608.62
2019-03-25T19:04:00.818Z,99615.55
2019-03-25T19:06:33.478Z,99609.98
2019-03-25T19:09:07.289Z,99614.95
2019-03-25T19:11:39.657Z,99618.45
2019-03-25T19:14:12.308Z,99614.50
2019-03-25T19:16:44.853Z,99611.58
2019-03-25T19:19:17.317Z,99611.58
2019-03-25T19:21:49.839Z,99612.73
2019-03-25T19:24:22.362Z,99612.73
2019-03-25T19:26:54.850Z,99615.19
2019-03-25T19:29:30.032Z,99610.91
2019-03-25T19:32:06.814Z,99614.35
2019-03-25T19:34:37.342Z,99616.19
2019-03-25T19:37:09.449Z,99616.19
2019-03-25T19:39:41.280Z,99615.19
2019-03-25T19:42:13.794Z,99613.56
2019-03-25T19:44:46.589Z,99612.78
2019-03-25T19:47:19.497Z,99619.98
2019-03-25T19:49:55.498Z,99624.91
2019-03-25T19:52:28.380Z,99614.73
2019-03-25T19:55:00.643Z,99618.34
2019-03-25T19:57:33.461Z,99632.28
2019-03-25T20:00:09.370Z,99635.39
2019-03-25T20:02:43.234Z,99642.10
2019-03-25T20:05:16.339Z,99646.04
2019-03-25T20:07:48.907Z,99659.19
2019-03-25T20:10:30.822Z,99659.19
2019-03-25T20:13:04.350Z,99663.80
2019-03-25T20:15:45.938Z,99663.00
2019-03-25T20:18:14.313Z,99674.67
2019-03-25T20:20:47.295Z,99673.23
2019-03-25T20:23:20.027Z,99662.25
2019-03-25T20:25:52.530Z,99662.25
2019-03-25T20:28:25.299Z,99678.95
2019-03-25T20:30:58.325Z,99682.73
2019-03-25T20:33:32.650Z,99682.73
2019-03-25T20:36:08.454Z,99698.32
2019-03-25T20:38:42.316Z,99684.84
2019-03-25T20:41:15.090Z,99699.30
2019-03-25T20:43:47.460Z,99712.27
2019-03-25T20:46:19.980Z,99706.19
2019-03-25T20:48:52.670Z,99706.98
2019-03-25T20:51:25.348Z,99707.95
2019-03-25T20:53:57.829Z,99709.55
2019-03-25T20:56:30.560Z,99709.55
2019-03-25T20:59:03.297Z,99698.56
2019-03-25T21:01:35.670Z,99697.20
2019-03-25T21:04:08.424Z,99697.20
2019-03-25T21:06:40.858Z,99703.42
2019-03-25T21:09:13.372Z,99703.42
2019-03-25T21:11:45.695Z,99703.22
2019-03-25T21:14:18.321Z,99703.22
2019-03-25T21:16:50.749Z,99734.09
2019-03-25T21:19:23.553Z,99734.09
2019-03-25T21:21:55.980Z,99735.91
2019-03-25T21:24:31.509Z,99741.09
2019-03-25T21:27:03.234Z,99741.09
2019-03-25T21:29:35.684Z,99740.47
2019-03-25T21:32:08.293Z,99737.54
2019-03-25T21:34:40.737Z,99745.10
2019-03-25T21:37:20.586Z,99745.10
2019-03-25T21:39:53.305Z,99741.50
2019-03-25T21:42:28.946Z,99746.48
2019-03-25T21:45:00.309Z,99746.48
2019-03-25T21:47:32.942Z,99758.22
2019-03-25T21:50:07.371Z,99758.22
2019-03-25T21:52:41.105Z,99756.32
2019-03-25T21:55:13.730Z,99756.32
2019-03-25T21:57:46.317Z,99756.15
2019-03-25T22:00:19.157Z,99745.65
2019-03-25T22:02:51.743Z,99745.65
2019-03-25T22:05:24.325Z,99765.53
2019-03-25T22:07:57.011Z,99760.77
2019-03-25T22:10:29.433Z,99777.04
2019-03-25T22:13:01.736Z,99778.21
2019-03-25T22:15:34.297Z,99776.58
2019-03-25T22:18:06.765Z,99746.30
2019-03-25T22:20:39.614Z,99746.30
2019-03-25T22:23:12.293Z,99770.47
2019-03-25T22:25:45.555Z,99782.58
2019-03-25T22:28:17.901Z,99787.65
2019-03-25T22:30:50.363Z,99784.40
2019-03-25T22:33:25.972Z,99787.95
2019-03-25T22:35:56.257Z,99784.20
2019-03-25T22:38:30.329Z,99788.62
2019-03-25T22:43:19.974Z,99789.48
2019-03-25T22:45:52.381Z,99805.58
2019-03-25T22:48:25.045Z,99799.36
2019-03-25T22:51:00.405Z,99799.36
2019-03-25T22:53:34.290Z,99809.34
2019-03-25T22:56:06.565Z,99792.07
2019-03-25T22:58:39.303Z,99792.07
2019-03-25T23:01:11.822Z,99829.83
2019-03-25T23:03:44.306Z,99829.83
2019-03-25T23:08:35.855Z,99832.18
2019-03-25T23:11:08.292Z,99842.51
2019-03-25T23:13:40.623Z,99836.97
2019-03-25T23:16:14.072Z,99836.97
2019-03-25T23:18:46.486Z,99838.53
2019-03-25T23:21:18.086Z,99840.36
2019-03-25T23:23:50.544Z,99840.23
2019-03-25T23:26:23.292Z,99839.50
2019-03-25T23:28:55.672Z,99839.94
2019-03-25T23:31:28.290Z,99839.94
2019-03-25T23:34:00.800Z,99841.33
2019-03-25T23:36:33.304Z,99841.33
2019-03-25T23:39:07.712Z,99838.15
2019-03-25T23:41:40.289Z,99838.15
2019-03-25T23:44:12.570Z,99855.83
2019-03-25T23:49:28.325Z,99862.07
2019-03-25T23:52:00.592Z,99875.08
2019-03-25T23:54:33.056Z,99875.08
2019-03-25T23:57:05.653Z,99878.70
2019-03-25T23:59:38.293Z,99875.06
